createdAt,value
2022-08-08T00:00:55.026Z,25.60
2022-08-08T00:06:09.931Z,25.50
2022-08-08T00:11:17.982Z,25.40
2022-08-08T00:16:26.705Z,25.30
2022-08-08T00:21:39.556Z,25.30
2022-08-08T00:26:52.567Z,25.20
2022-08-08T00:32:21.106Z,25.20
2022-08-08T00:37:47.167Z,25.20
2022-08-08T00:43:19.257Z,25.10
2022-08-08T00:48:42.015Z,25.10
2022-08-08T00:54:41.105Z,25.00
2022-08-08T01:00:04.847Z,25.00
2022-08-08T01:05:58.603Z,24.90
2022-08-08T01:11:12.290Z,24.90
2022-08-08T01:16:54.967Z,24.90
2022-08-08T01:22:40.328Z,24.90
2022-08-08T01:28:28.100Z,24.90
2022-08-08T01:33:53.998Z,24.90
2022-08-08T01:39:35.018Z,25.00
2022-08-08T01:44:54.928Z,24.90
2022-08-08T01:50:26.228Z,24.90
2022-08-08T01:56:27.481Z,25.00
2022-08-08T02:01:15.892Z,24.90
2022-08-08T02:06:48.240Z,24.90
2022-08-08T02:12:00.429Z,24.90
2022-08-08T02:17:20.174Z,24.80
2022-08-08T02:22:34.286Z,24.80
2022-08-08T02:28:25.895Z,24.70
2022-08-08T02:34:08.006Z,24.60
2022-08-08T02:40:00.056Z,24.60
2022-08-08T02:45:51.240Z,24.50
2022-08-08T02:51:30.105Z,24.40
2022-08-08T02:57:22.480Z,24.40
2022-08-08T03:02:50.552Z,24.30
2022-08-08T03:08:10.191Z,24.10
2022-08-08T03:15:53.334Z,24.10
2022-08-08T03:18:53.767Z,24.00
2022-08-08T03:24:01.887Z,23.90
2022-08-08T03:29:16.893Z,23.80
2022-08-08T03:34:23.990Z,23.70
2022-08-08T03:39:29.585Z,23.70
2022-08-08T03:44:33.951Z,23.70
2022-08-08T03:49:59.597Z,23.70
2022-08-08T03:55:20.370Z,23.70
2022-08-08T04:00:27.703Z,23.60
2022-08-08T04:05:48.094Z,23.60
2022-08-08T04:10:59.865Z,23.50
2022-08-08T04:16:05.614Z,23.50
2022-08-08T04:21:13.367Z,23.60
2022-08-08T04:26:17.566Z,23.60
2022-08-08T04:31:57.264Z,23.60
2022-08-08T04:36:44.803Z,23.60
2022-08-08T04:41:48.928Z,23.60
2022-08-08T04:46:53.311Z,23.60
2022-08-08T04:51:57.662Z,23.70
2022-08-08T04:57:01.769Z,23.70
2022-08-08T05:02:04.305Z,23.80
2022-08-08T05:07:10.320Z,24.00
2022-08-08T05:12:20.423Z,24.00
2022-08-08T05:17:24.341Z,24.10
2022-08-08T05:22:28.015Z,24.20
2022-08-08T05:27:41.515Z,24.30
2022-08-08T05:32:45.400Z,24.40
2022-08-08T05:37:59.264Z,24.50
2022-08-08T05:44:02.562Z,24.70
2022-08-08T05:48:52.168Z,24.90
2022-08-08T05:54:27.740Z,25.10
2022-08-08T05:59:59.141Z,25.30
2022-08-08T06:04:57.022Z,25.50
2022-08-08T06:10:06.289Z,25.70
2022-08-08T06:15:12.580Z,26.00
2022-08-08T06:20:20.807Z,26.20
2022-08-08T06:25:33.160Z,26.40
2022-08-08T06:30:51.739Z,26.70
2022-08-08T06:36:08.477Z,27.00
2022-08-08T06:41:17.571Z,27.30
2022-08-08T06:46:23.759Z,27.60
2022-08-08T06:51:46.692Z,27.80
2022-08-08T06:56:52.833Z,28.10
2022-08-08T07:02:27.350Z,29.10
2022-08-08T07:07:45.488Z,30.50
2022-08-08T07:12:54.416Z,32.40
2022-08-08T07:18:36.999Z,35.50
2022-08-08T07:24:01.621Z,37.80
2022-08-08T07:29:20.270Z,38.70
2022-08-08T07:34:35.007Z,37.50
2022-08-08T07:39:57.617Z,36.40
2022-08-08T07:45:05.812Z,35.60
2022-08-08T07:50:12.220Z,35.20
2022-08-08T07:55:28.543Z,34.90
2022-08-08T08:00:43.375Z,34.50
2022-08-08T08:05:53.403Z,34.10
2022-08-08T08:11:00.256Z,34.10
2022-08-08T08:16:06.928Z,33.70
2022-08-08T08:21:18.664Z,33.30
2022-08-08T08:26:27.551Z,33.40
2022-08-08T08:31:34.754Z,33.60
2022-08-08T08:36:44.983Z,33.30
2022-08-08T08:41:54.916Z,33.30
2022-08-08T08:47:02.904Z,33.40
2022-08-08T08:52:11.490Z,33.10
2022-08-08T08:57:17.293Z,32.40
2022-08-08T09:02:35.714Z,31.90
2022-08-08T09:07:52.379Z,31.80
2022-08-08T09:13:09.937Z,31.70
2022-08-08T09:18:14.792Z,31.20
2022-08-08T09:23:25.516Z,31.40
2022-08-08T09:28:37.536Z,31.40
2022-08-08T09:34:15.091Z,31.30
2022-08-08T09:39:19.158Z,31.30
2022-08-08T09:44:50.717Z,31.30
2022-08-08T09:49:58.912Z,31.60
2022-08-08T09:55:07.163Z,31.40
2022-08-08T10:00:35.994Z,31.10
2022-08-08T10:05:37.091Z,31.10
2022-08-08T10:10:50.006Z,31.30
2022-08-08T10:16:01.092Z,30.90
2022-08-08T10:21:22.970Z,30.90
2022-08-08T10:26:56.914Z,31.00
2022-08-08T10:32:17.993Z,30.70
2022-08-08T10:37:30.230Z,30.60
2022-08-08T10:42:37.541Z,30.30
2022-08-08T10:47:48.580Z,30.30
2022-08-08T10:53:03.488Z,30.40
2022-08-08T10:58:09.717Z,30.60
2022-08-08T11:03:15.603Z,30.50
2022-08-08T11:08:37.219Z,30.30
2022-08-08T11:13:52.169Z,30.20
2022-08-08T11:19:05.101Z,30.30
2022-08-08T11:24:10.202Z,30.50
2022-08-08T11:29:15.868Z,30.50
2022-08-08T11:34:23.466Z,30.60
2022-08-08T11:39:37.009Z,30.60
2022-08-08T11:44:40.573Z,30.70
2022-08-08T11:49:44.835Z,30.70
2022-08-08T11:54:52.128Z,30.70
2022-08-08T12:00:02.772Z,30.70
2022-08-08T12:05:16.680Z,30.80
2022-08-08T12:10:21.932Z,30.70
2022-08-08T12:15:29.440Z,30.60
2022-08-08T12:20:40.185Z,30.60
2022-08-08T12:25:44.877Z,30.70
2022-08-08T12:31:06.516Z,30.80
2022-08-08T12:36:12.806Z,30.70
2022-08-08T12:41:34.010Z,31.00
2022-08-08T12:46:37.587Z,30.90
2022-08-08T12:51:53.633Z,30.70
2022-08-08T12:57:14.115Z,30.70
2022-08-08T13:02:28.481Z,30.80
2022-08-08T13:08:04.265Z,30.80
2022-08-08T13:13:06.172Z,30.90
2022-08-08T13:18:13.660Z,30.80
2022-08-08T13:23:36.587Z,30.90
2022-08-08T13:28:42.194Z,31.00
2022-08-08T13:33:49.813Z,30.80
2022-08-08T13:38:52.619Z,30.90
2022-08-08T13:43:54.961Z,30.60
2022-08-08T13:50:33.392Z,30.60
2022-08-08T13:54:29.488Z,30.70
2022-08-08T13:59:40.740Z,30.60
2022-08-08T14:05:09.199Z,30.60
2022-08-08T14:10:33.143Z,30.60
2022-08-08T14:15:50.142Z,30.50
2022-08-08T14:21:08.251Z,30.30
2022-08-08T14:26:25.195Z,30.40
2022-08-08T14:32:06.223Z,30.50
2022-08-08T14:36:54.581Z,30.40
2022-08-08T14:42:03.488Z,30.40
2022-08-08T14:47:16.976Z,30.40
2022-08-08T14:52:24.206Z,30.20
2022-08-08T14:58:02.542Z,30.20
2022-08-08T15:03:10.568Z,30.20
2022-08-08T15:08:22.073Z,30.10
2022-08-08T15:13:40.966Z,29.80
2022-08-08T15:18:58.348Z,29.60
2022-08-08T15:24:00.629Z,29.40
2022-08-08T15:29:03.448Z,29.30
2022-08-08T15:34:18.671Z,29.20
2022-08-08T15:39:39.082Z,29.30
2022-08-08T15:44:42.589Z,29.20
2022-08-08T15:49:47.753Z,29.00
2022-08-08T15:54:51.823Z,28.90
2022-08-08T16:00:14.168Z,28.70
2022-08-08T16:05:17.185Z,28.80
2022-08-08T16:13:15.519Z,28.70
2022-08-08T16:15:57.734Z,28.80
2022-08-08T16:21:20.667Z,28.70
2022-08-08T16:26:34.835Z,28.70
2022-08-08T16:31:44.752Z,28.60
2022-08-08T16:36:51.583Z,28.50
2022-08-08T16:41:55.030Z,28.50
2022-08-08T16:47:39.986Z,28.50
2022-08-08T16:55:20.745Z,28.70
2022-08-08T16:58:15.252Z,28.70
2022-08-08T17:03:24.837Z,28.60
2022-08-08T17:08:37.560Z,28.50
2022-08-08T17:14:00.799Z,28.40
2022-08-08T17:19:03.340Z,28.40
2022-08-08T17:24:10.548Z,28.40
2022-08-08T17:29:33.695Z,28.40
2022-08-08T17:35:44.567Z,28.30
2022-08-08T17:40:05.889Z,28.40
2022-08-08T17:45:22.502Z,28.30
2022-08-08T17:50:26.433Z,28.40
2022-08-08T17:56:05.564Z,28.40
2022-08-08T18:00:56.450Z,28.20
2022-08-08T18:05:59.749Z,28.20
2022-08-08T18:11:03.657Z,28.20
2022-08-08T18:16:06.316Z,28.00
2022-08-08T18:21:10.725Z,28.10
2022-08-08T18:26:29.090Z,28.10
2022-08-08T18:31:31.565Z,28.10
2022-08-08T18:36:33.822Z,28.00
2022-08-08T18:41:51.347Z,27.90
2022-08-08T18:47:00.887Z,27.70
2022-08-08T18:52:03.274Z,27.90
2022-08-08T18:57:08.881Z,27.90
2022-08-08T19:02:28.751Z,27.90
2022-08-08T19:07:33.398Z,27.80
2022-08-08T19:12:39.762Z,27.80
2022-08-08T19:17:47.984Z,27.70
2022-08-08T19:22:50.752Z,27.90
2022-08-08T19:27:57.469Z,28.00
2022-08-08T19:33:02.620Z,27.70
2022-08-08T19:38:06.471Z,27.80
2022-08-08T19:43:12.451Z,27.80
2022-08-08T19:48:28.764Z,27.90
2022-08-08T19:53:53.501Z,27.90
2022-08-08T19:58:55.644Z,28.00
2022-08-08T20:04:01.649Z,28.00
2022-08-08T20:09:08.745Z,28.00
2022-08-08T20:14:32.574Z,28.00
2022-08-08T20:19:42.359Z,28.00
2022-08-08T20:24:45.958Z,27.90
2022-08-08T20:30:00.224Z,27.90
2022-08-08T20:35:04.386Z,27.80
2022-08-08T20:40:08.777Z,27.80
2022-08-08T20:45:11.224Z,27.70
2022-08-08T20:50:15.465Z,27.70
2022-08-08T20:55:25.887Z,27.60
2022-08-08T21:00:28.480Z,27.70
2022-08-08T21:05:32.732Z,27.60
2022-08-08T21:10:52.326Z,27.60
2022-08-08T21:16:05.149Z,27.60
2022-08-08T21:21:38.560Z,27.60
2022-08-08T21:26:41.820Z,27.50
2022-08-08T21:31:58.347Z,27.40
2022-08-08T21:37:11.480Z,27.40
2022-08-08T21:42:18.610Z,27.40
2022-08-08T21:48:07.164Z,27.40
2022-08-08T21:54:33.386Z,27.40
2022-08-08T21:58:14.715Z,27.30
2022-08-08T22:03:19.713Z,27.30
2022-08-08T22:08:24.330Z,27.30
2022-08-08T22:13:26.698Z,27.30
2022-08-08T22:18:49.548Z,27.30
2022-08-08T22:23:55.043Z,27.20
2022-08-08T22:29:13.255Z,27.10
2022-08-08T22:34:21.462Z,27.10
2022-08-08T22:39:45.552Z,27.00
2022-08-08T22:44:48.688Z,27.00
2022-08-08T22:49:53.984Z,26.90
2022-08-08T22:55:04.343Z,26.80
2022-08-08T23:00:11.754Z,26.80
2022-08-08T23:05:15.912Z,26.70
2022-08-08T23:10:19.564Z,26.60
2022-08-08T23:16:38.199Z,26.50
2022-08-08T23:20:51.497Z,26.30
2022-08-08T23:25:57.427Z,26.20
2022-08-08T23:30:59.744Z,26.10
2022-08-08T23:36:07.754Z,26.00
2022-08-08T23:41:17.605Z,25.90
2022-08-08T23:49:05.466Z,25.90
2022-08-08T23:52:05.037Z,25.80
2022-08-08T23:57:15.375Z,25.70
